Aurora, MO

10:38 AM CDT on April 27, 2015 (GMT -0500)
Branson | | Change Station
CLOSE
Current Station
Airport
Location: Branson,
Elevation: 1302 ft
Nearby Weather Stations

Elev 1302 ft 36.53 °N, 93.20 °W | Updated 52 minutes ago

Partly Cloudy
Partly Cloudy
52 °F
Feels Like 52 °F
N
14
Wind Variable Wind from ENE
Gusts 21 mph

Today
High -- | Low -- °F
--% Chance of Precip.
Yesterday
High -- | Low -- °F
Precip. -- in
6:25 AM 8:00 PM
Waxing Gibbous, 65% visible
Pressure 30.07 in
Visibility 10.0 miles
Clouds Few 15000 ft
Overcast 25000 ft
Dew Point 32 °F
Humidity 47%
Rainfall 0.00 in
Snow Depth Not available.
UV 2 out of 12
Pollen 10.70 out of 12
Air Quality Not available.
Flu Activity Local Activity
METAR KBBG 271446Z 07012G18KT 10SM FEW150 OVC250 11/00 A3007

More Conditions Fewer Conditions

Pressure 30.07 in
Visibility 10.0 miles
Clouds Few 15000 ft
Overcast 25000 ft
Dew Point 32 °F
Humidity 47%
Rainfall 0.00 in
Snow Depth Not available.
UV 2 out of 12
Pollen 10.70 out of 12
Air Quality Not available.
Flu Activity Local Activity
METAR KBBG 271446Z 07012G18KT 10SM FEW150 OVC250 11/00 A3007

More Conditions Fewer Conditions

10-Day Weather Forecast

Almanac

Astronomy

Apr. 27, 2015 Rise Set
Actual Time
Civil Twilight
Nautical Twilight
Astronomical Twilight
Moon
Length of Visible Light
Length of Day
Tomorrow will be .
, % of the Moon is Illuminated

Today's Extremes

State Highs State Lows

Community

WunderPhotos

Upload Photos

1,817,327 photos uploaded!

WunderBlogs® & News

Nearby

Air Quality

  Air Quality AQ Index Pollutant
Not available.

Snow Depth

Station Depth Elevation

Earthquake Activity

City Distance Mag. Time & Date
Minimum magnitude displayed is 2.5.

Coastal Water Temperatures

Place Temperature

Stations

Nearby Weather Stations

Station Location Temp. Windchill Dew Point Humidity Wind Precip. Elev Updated Type